createdAt,value
2023-02-11T00:00:57.686Z,102376.00
2023-02-11T00:04:01.804Z,102375.94
2023-02-11T00:07:04.304Z,102361.28
2023-02-11T00:10:10.393Z,102367.44
2023-02-11T00:13:12.896Z,102365.75
2023-02-11T00:16:18.759Z,102369.38
2023-02-11T00:19:21.727Z,102370.41
2023-02-11T00:22:24.400Z,102368.56
2023-02-11T00:25:26.998Z,102366.16
2023-02-11T00:28:29.804Z,102362.66
2023-02-11T00:31:33.001Z,102361.78
2023-02-11T00:34:36.813Z,102363.53
2023-02-11T00:37:39.423Z,102377.53
2023-02-11T00:40:42.039Z,102354.81
2023-02-11T00:43:44.730Z,102365.69
2023-02-11T00:46:47.368Z,102355.88
2023-02-11T00:49:49.868Z,102351.56
2023-02-11T00:52:52.406Z,102333.22
2023-02-11T00:55:54.957Z,102335.19
2023-02-11T00:58:57.766Z,102336.09
2023-02-11T01:02:00.880Z,102331.66
2023-02-11T01:05:04.360Z,102332.50
2023-02-11T01:08:08.565Z,102329.34
2023-02-11T01:11:17.287Z,102320.75
2023-02-11T01:14:20.861Z,102316.47
2023-02-11T01:17:25.748Z,102315.53
2023-02-11T01:20:29.699Z,102313.25
2023-02-11T01:23:32.580Z,102299.88
2023-02-11T01:26:35.152Z,102299.22
2023-02-11T01:29:37.745Z,102298.34
2023-02-11T01:32:40.670Z,102301.22
2023-02-11T01:35:44.930Z,102296.47
2023-02-11T01:38:47.530Z,102307.25
2023-02-11T01:41:50.046Z,102305.69
2023-02-11T01:44:54.714Z,102308.38
2023-02-11T01:47:57.351Z,102296.38
2023-02-11T01:51:32.963Z,102298.19
2023-02-11T01:54:59.871Z,102300.03
2023-02-11T01:58:05.254Z,102295.59
2023-02-11T02:01:08.899Z,102296.28
2023-02-11T02:04:12.588Z,102296.34
2023-02-11T02:07:25.074Z,102291.50
2023-02-11T02:10:28.991Z,102293.13
2023-02-11T02:13:33.578Z,102294.78
2023-02-11T02:16:37.833Z,102301.03
2023-02-11T02:20:03.939Z,102302.13
2023-02-11T02:23:18.550Z,102302.84
2023-02-11T02:26:52.426Z,102307.16
2023-02-11T02:29:54.834Z,102299.41
2023-02-11T02:33:21.844Z,102301.09
2023-02-11T02:36:38.304Z,102292.63
2023-02-11T02:39:41.086Z,102292.69
2023-02-11T02:42:44.472Z,102294.88
2023-02-11T02:45:46.980Z,102287.34
2023-02-11T02:48:52.797Z,102284.28
2023-02-11T02:52:28.540Z,102278.22
2023-02-11T02:55:45.341Z,102278.41
2023-02-11T02:59:25.417Z,102277.53
2023-02-11T03:02:43.949Z,102282.31
2023-02-11T03:05:55.067Z,102272.28
2023-02-11T03:09:06.392Z,102260.34
2023-02-11T03:12:10.662Z,102262.03
2023-02-11T03:15:15.247Z,102264.69
2023-02-11T03:18:20.893Z,102257.69
2023-02-11T03:21:25.240Z,102251.84
2023-02-11T03:24:31.920Z,102253.59
2023-02-11T03:27:49.367Z,102247.53
2023-02-11T03:31:10.742Z,102242.28
2023-02-11T03:34:21.598Z,102243.09
2023-02-11T03:37:37.688Z,102238.75
2023-02-11T03:40:43.676Z,102239.56
2023-02-11T03:43:52.963Z,102223.59
2023-02-11T03:46:56.035Z,102219.31
2023-02-11T03:50:00.772Z,102213.28
2023-02-11T03:53:04.860Z,102207.31
2023-02-11T03:56:13.142Z,102196.03
2023-02-11T03:59:15.703Z,102195.22
2023-02-11T04:02:19.000Z,102197.75
2023-02-11T04:05:21.470Z,102190.16
2023-02-11T04:08:24.191Z,102185.09
2023-02-11T04:11:26.652Z,102183.47
2023-02-11T04:14:29.059Z,102174.69
2023-02-11T04:17:31.560Z,102175.59
2023-02-11T04:20:34.067Z,102174.94
2023-02-11T04:23:36.942Z,102177.25
2023-02-11T04:26:39.402Z,102185.28
2023-02-11T04:29:42.231Z,102180.38
2023-02-11T04:32:44.799Z,102180.38
2023-02-11T04:35:47.342Z,102183.84
2023-02-11T04:38:49.773Z,102181.22
2023-02-11T04:41:52.218Z,102187.25
2023-02-11T04:44:54.697Z,102185.53
2023-02-11T04:47:57.203Z,102191.59
2023-02-11T04:50:59.842Z,102188.25
2023-02-11T04:54:02.342Z,102186.50
2023-02-11T04:57:05.409Z,102183.94
2023-02-11T05:00:10.040Z,102195.25
2023-02-11T05:03:13.134Z,102185.56
2023-02-11T05:06:16.165Z,102184.53
2023-02-11T05:09:18.658Z,102189.16
2023-02-11T05:12:21.885Z,102187.63
2023-02-11T05:15:24.565Z,102186.66
2023-02-11T05:18:27.061Z,102186.66
2023-02-11T05:21:29.542Z,102186.06
2023-02-11T05:24:32.652Z,102186.34
2023-02-11T05:27:35.348Z,102182.31
2023-02-11T05:30:38.040Z,102176.34
2023-02-11T05:33:41.320Z,102178.94
2023-02-11T05:36:43.851Z,102169.25
2023-02-11T05:39:46.401Z,102164.78
2023-02-11T05:42:49.001Z,102166.53
2023-02-11T05:45:52.406Z,102173.22
2023-02-11T05:48:56.679Z,102170.56
2023-02-11T05:51:59.148Z,102163.59
2023-02-11T05:55:01.614Z,102168.44
2023-02-11T05:58:04.563Z,102170.19
2023-02-11T06:01:07.161Z,102169.94
2023-02-11T06:04:09.801Z,102164.44
2023-02-11T06:07:12.303Z,102166.22
2023-02-11T06:10:14.847Z,102161.00
2023-02-11T06:13:18.722Z,102156.56
2023-02-11T06:16:21.339Z,102150.22
2023-02-11T06:19:24.285Z,102138.88
2023-02-11T06:22:27.540Z,102132.63
2023-02-11T06:25:30.024Z,102140.06
2023-02-11T06:28:33.361Z,102149.31
2023-02-11T06:31:37.990Z,102154.84
2023-02-11T06:34:40.708Z,102152.28
2023-02-11T06:37:43.228Z,102152.78
2023-02-11T06:40:49.717Z,102148.59
2023-02-11T06:43:53.214Z,102147.94
2023-02-11T06:46:55.784Z,102146.97
2023-02-11T06:49:58.292Z,102146.50
2023-02-11T06:53:01.012Z,102141.94
2023-02-11T06:56:08.646Z,102141.47
2023-02-11T06:59:16.344Z,102138.34
2023-02-11T07:02:20.992Z,102134.13
2023-02-11T07:05:23.891Z,102141.38
2023-02-11T07:08:27.003Z,102144.22
2023-02-11T07:11:30.107Z,102135.63
2023-02-11T07:14:33.463Z,102136.56
2023-02-11T07:17:36.486Z,102133.44
2023-02-11T07:20:39.015Z,102122.81
2023-02-11T07:23:41.914Z,102128.28
2023-02-11T07:26:44.911Z,102130.19
2023-02-11T07:29:48.689Z,102128.25
2023-02-11T07:32:51.298Z,102115.25
2023-02-11T07:35:53.886Z,102117.28
2023-02-11T07:38:56.567Z,102120.00
2023-02-11T07:42:00.171Z,102116.47
2023-02-11T07:45:03.468Z,102117.38
2023-02-11T07:48:06.233Z,102108.63
2023-02-11T07:51:14.348Z,102105.56
2023-02-11T07:54:17.426Z,102106.78
2023-02-11T07:57:19.966Z,102108.31
2023-02-11T08:00:22.545Z,102099.84
2023-02-11T08:03:25.053Z,102102.63
2023-02-11T08:06:34.866Z,102099.81
2023-02-11T08:09:37.564Z,102102.53
2023-02-11T08:12:41.856Z,102082.94
2023-02-11T08:15:44.320Z,102087.25
2023-02-11T08:18:47.898Z,102090.34
2023-02-11T08:21:50.624Z,102090.53
2023-02-11T08:24:53.051Z,102091.41
2023-02-11T08:27:55.525Z,102096.19
2023-02-11T08:30:58.058Z,102096.00
2023-02-11T08:34:02.361Z,102094.13
2023-02-11T08:37:09.042Z,102097.19
2023-02-11T08:40:11.774Z,102094.00
2023-02-11T08:43:14.462Z,102083.66
2023-02-11T08:46:19.151Z,102092.19
2023-02-11T08:49:22.872Z,102088.88
2023-02-11T08:52:25.552Z,102086.59
2023-02-11T08:55:28.085Z,102085.06
2023-02-11T08:58:30.914Z,102085.66
2023-02-11T09:01:33.968Z,102082.84
2023-02-11T09:04:36.554Z,102070.25
2023-02-11T09:07:39.760Z,102073.19
2023-02-11T09:10:42.856Z,102067.94
2023-02-11T09:13:46.570Z,102069.16
2023-02-11T09:16:49.974Z,102064.06
2023-02-11T09:19:52.616Z,102061.94
2023-02-11T09:22:57.654Z,102060.41
2023-02-11T09:26:12.447Z,102048.25
2023-02-11T09:29:15.158Z,102040.72
2023-02-11T09:32:18.453Z,102048.03
2023-02-11T09:35:20.999Z,102046.31
2023-02-11T09:38:23.721Z,102045.91
2023-02-11T09:41:46.414Z,102042.97
2023-02-11T09:44:49.159Z,102040.94
2023-02-11T09:47:56.453Z,102035.06
2023-02-11T09:51:03.361Z,102030.63
2023-02-11T09:54:15.447Z,102027.94
2023-02-11T09:57:28.193Z,102030.25
2023-02-11T10:00:40.232Z,102031.06
2023-02-11T10:03:49.590Z,102019.19
2023-02-11T10:07:02.250Z,102009.19
2023-02-11T10:10:10.641Z,102009.19
2023-02-11T10:13:22.455Z,102004.38
2023-02-11T10:16:43.204Z,102009.69
2023-02-11T10:20:19.650Z,102018.00
2023-02-11T10:23:34.063Z,101994.66
2023-02-11T10:26:39.704Z,101993.22
2023-02-11T10:29:52.563Z,101986.13
2023-02-11T10:33:03.237Z,101980.94
2023-02-11T10:36:06.281Z,101966.00
2023-02-11T10:39:16.438Z,101970.72
2023-02-11T10:42:19.020Z,101970.88
2023-02-11T10:45:33.322Z,101960.34
2023-02-11T10:48:49.535Z,101958.31
2023-02-11T10:52:13.720Z,101951.31
2023-02-11T10:55:22.180Z,101956.72
2023-02-11T10:58:28.676Z,101942.41
2023-02-11T11:01:50.186Z,101937.25
2023-02-11T11:04:57.678Z,101923.53
2023-02-11T11:08:04.179Z,101919.44
2023-02-11T11:11:09.956Z,101920.28
2023-02-11T11:14:19.586Z,101916.09
2023-02-11T11:17:22.246Z,101915.81
2023-02-11T11:20:30.514Z,101899.53
2023-02-11T11:23:36.753Z,101898.19
2023-02-11T11:26:46.374Z,101899.38
2023-02-11T11:29:51.970Z,101890.88
2023-02-11T11:32:55.122Z,101882.34
2023-02-11T11:36:06.656Z,101886.97
2023-02-11T11:39:35.106Z,101870.31
2023-02-11T11:42:39.395Z,101881.09
2023-02-11T11:45:56.803Z,101869.63
2023-02-11T11:49:13.240Z,101875.63
2023-02-11T11:52:40.395Z,101865.84
2023-02-11T11:55:53.617Z,101860.41
2023-02-11T11:58:56.904Z,101865.72
2023-02-11T12:02:23.404Z,101861.25
2023-02-11T12:05:33.978Z,101854.25
2023-02-11T12:08:51.435Z,101848.38
2023-02-11T12:12:01.556Z,101841.25
2023-02-11T12:15:22.504Z,101831.34
2023-02-11T12:18:47.613Z,101812.59
2023-02-11T12:22:24.134Z,101813.16
2023-02-11T12:25:45.563Z,101800.56
2023-02-11T12:29:02.878Z,101790.75
2023-02-11T12:32:15.746Z,101791.44
2023-02-11T12:35:31.141Z,101791.25
2023-02-11T12:39:02.179Z,101794.38
2023-02-11T12:42:57.136Z,101786.97
2023-02-11T12:46:27.144Z,101772.31
2023-02-11T12:50:01.957Z,101770.16
2023-02-11T12:53:41.842Z,101772.25
2023-02-11T12:56:44.257Z,101760.06
2023-02-11T13:00:07.032Z,101769.69
2023-02-11T13:03:19.176Z,101764.03
2023-02-11T13:07:05.568Z,101762.22
2023-02-11T13:10:14.253Z,101749.25
2023-02-11T13:13:26.257Z,101738.69
2023-02-11T13:16:47.969Z,101732.72
2023-02-11T13:20:01.500Z,101728.56
2023-02-11T13:23:13.123Z,101716.59
2023-02-11T13:26:39.499Z,101724.25
2023-02-11T13:30:11.393Z,101704.66
2023-02-11T13:33:17.507Z,101702.66
2023-02-11T13:36:26.818Z,101710.31
2023-02-11T13:39:29.406Z,101703.25
2023-02-11T13:42:46.725Z,101723.91
2023-02-11T13:45:51.614Z,101715.69
2023-02-11T13:48:55.328Z,101720.31
2023-02-11T13:52:00.204Z,101715.84
2023-02-11T13:55:14.726Z,101718.16
2023-02-11T13:58:32.993Z,101720.22
2023-02-11T14:01:40.359Z,101709.72
2023-02-11T14:05:37.780Z,101707.81
2023-02-11T14:09:07.576Z,101694.59
2023-02-11T14:12:23.871Z,101694.47
2023-02-11T14:15:27.728Z,101695.88
2023-02-11T14:18:45.190Z,101708.56
2023-02-11T14:21:47.754Z,101721.75
2023-02-11T14:24:52.345Z,101727.88
2023-02-11T14:28:01.589Z,101730.25
2023-02-11T14:31:11.457Z,101726.88
2023-02-11T14:34:51.173Z,101741.41
2023-02-11T14:37:59.509Z,101734.16
2023-02-11T14:41:19.860Z,101738.44
2023-02-11T14:44:26.906Z,101739.38
2023-02-11T14:47:38.453Z,101731.16
2023-02-11T14:50:46.161Z,101729.13
2023-02-11T14:53:55.652Z,101714.19
2023-02-11T14:57:16.039Z,101706.47
2023-02-11T15:00:23.600Z,101686.59
2023-02-11T15:03:37.096Z,101679.06
2023-02-11T15:06:42.731Z,101678.91
2023-02-11T15:09:49.981Z,101679.34
2023-02-11T15:12:53.570Z,101671.28
2023-02-11T15:16:06.595Z,101680.91
2023-02-11T15:19:21.312Z,101688.94
2023-02-11T15:22:29.377Z,101695.47
2023-02-11T15:25:34.330Z,101681.19
2023-02-11T15:28:37.583Z,101692.31
2023-02-11T15:31:40.314Z,101668.72
2023-02-11T15:34:44.887Z,101666.81
2023-02-11T15:37:50.320Z,101652.88
2023-02-11T15:41:00.798Z,101649.28
2023-02-11T15:44:03.821Z,101660.63
2023-02-11T15:47:10.915Z,101662.88
2023-02-11T15:50:26.090Z,101659.44
2023-02-11T15:53:33.593Z,101649.09
2023-02-11T15:56:43.101Z,101647.03
2023-02-11T15:59:49.960Z,101636.00
2023-02-11T16:02:53.466Z,101624.84
2023-02-11T16:05:56.626Z,101632.63
2023-02-11T16:09:03.985Z,101628.75
2023-02-11T16:12:23.544Z,101633.78
2023-02-11T16:15:52.498Z,101623.03
2023-02-11T16:19:04.801Z,101610.19
2023-02-11T16:22:11.857Z,101615.66
2023-02-11T16:25:19.669Z,101619.00
2023-02-11T16:28:22.602Z,101620.28
2023-02-11T16:31:33.565Z,101612.88
2023-02-11T16:34:36.825Z,101625.00
2023-02-11T16:37:39.322Z,101636.88
2023-02-11T16:40:44.442Z,101639.94
2023-02-11T16:43:49.216Z,101624.59
2023-02-11T16:46:53.683Z,101624.88
2023-02-11T16:49:57.577Z,101631.84
2023-02-11T16:53:02.164Z,101626.53
2023-02-11T16:56:05.124Z,101633.94
2023-02-11T16:59:09.236Z,101634.34
2023-02-11T17:02:25.321Z,101631.28
2023-02-11T17:05:27.932Z,101641.47
2023-02-11T17:08:30.672Z,101643.31
2023-02-11T17:11:33.451Z,101638.81
2023-02-11T17:14:35.924Z,101645.41
2023-02-11T17:17:38.615Z,101650.97
2023-02-11T17:20:41.835Z,101648.47
2023-02-11T17:23:46.114Z,101648.47
2023-02-11T17:26:50.393Z,101639.94
2023-02-11T17:29:53.423Z,101640.78
2023-02-11T17:32:56.231Z,101652.34
2023-02-11T17:35:59.045Z,101649.59
2023-02-11T17:39:03.058Z,101648.59
2023-02-11T17:42:06.501Z,101645.38
2023-02-11T17:45:10.005Z,101641.22
2023-02-11T17:48:12.500Z,101629.34
2023-02-11T17:51:23.166Z,101631.03
2023-02-11T17:54:26.110Z,101640.22
2023-02-11T17:57:28.888Z,101635.63
2023-02-11T18:00:32.150Z,101629.03
2023-02-11T18:03:35.014Z,101636.31
2023-02-11T18:06:37.878Z,101623.19
2023-02-11T18:09:41.542Z,101618.28
2023-02-11T18:12:43.949Z,101603.50
2023-02-11T18:15:46.709Z,101598.06
2023-02-11T18:18:50.161Z,101601.00
2023-02-11T18:21:54.048Z,101593.47
2023-02-11T18:24:56.793Z,101596.41
2023-02-11T18:27:59.646Z,101600.16
2023-02-11T18:31:02.858Z,101597.22
2023-02-11T18:34:07.894Z,101601.44
2023-02-11T18:37:13.355Z,101592.47
2023-02-11T18:40:16.164Z,101595.13
2023-02-11T18:43:21.778Z,101587.47
2023-02-11T18:46:24.627Z,101592.47
2023-02-11T18:49:27.424Z,101598.34
2023-02-11T18:52:31.558Z,101607.16
2023-02-11T18:55:34.137Z,101604.88
2023-02-11T18:58:38.062Z,101597.06
2023-02-11T19:01:43.360Z,101598.50
2023-02-11T19:04:46.893Z,101605.59
2023-02-11T19:07:49.659Z,101607.03
2023-02-11T19:10:52.515Z,101602.66
2023-02-11T19:13:54.979Z,101604.22
2023-02-11T19:16:59.711Z,101604.38
2023-02-11T19:20:05.982Z,101612.19
2023-02-11T19:23:09.577Z,101616.22
2023-02-11T19:26:13.377Z,101611.19
2023-02-11T19:29:16.824Z,101606.69
2023-02-11T19:32:19.982Z,101601.84
2023-02-11T19:35:23.332Z,101605.47
2023-02-11T19:38:27.144Z,101613.41
2023-02-11T19:41:33.590Z,101611.47
2023-02-11T19:44:36.485Z,101621.22
2023-02-11T19:47:39.280Z,101613.13
2023-02-11T19:50:42.092Z,101608.94
2023-02-11T19:53:45.957Z,101605.44
2023-02-11T19:56:49.034Z,101606.44
2023-02-11T19:59:54.845Z,101615.06
2023-02-11T20:02:57.894Z,101601.41
2023-02-11T20:06:04.495Z,101593.47
2023-02-11T20:09:11.851Z,101587.03
2023-02-11T20:12:15.715Z,101592.47
2023-02-11T20:15:18.348Z,101596.66
2023-02-11T20:18:21.600Z,101587.88
2023-02-11T20:21:30.541Z,101585.50
2023-02-11T20:24:33.347Z,101595.41
2023-02-11T20:27:36.283Z,101588.84
2023-02-11T20:30:39.576Z,101589.97
2023-02-11T20:33:42.144Z,101587.19
2023-02-11T20:36:51.697Z,101583.28
2023-02-11T20:39:55.840Z,101576.56
2023-02-11T20:42:58.708Z,101568.75
2023-02-11T20:46:05.707Z,101570.88
2023-02-11T20:49:11.943Z,101577.16
2023-02-11T20:52:18.010Z,101566.97
2023-02-11T20:55:20.763Z,101560.94
2023-02-11T20:58:23.324Z,101556.22
2023-02-11T21:01:29.892Z,101566.25
2023-02-11T21:04:35.657Z,101561.38
2023-02-11T21:07:39.239Z,101573.63
2023-02-11T21:10:43.857Z,101582.72
2023-02-11T21:13:46.952Z,101595.00
2023-02-11T21:16:50.468Z,101564.56
2023-02-11T21:19:53.283Z,101551.03
2023-02-11T21:22:56.061Z,101567.75
2023-02-11T21:25:58.762Z,101549.75
2023-02-11T21:29:06.049Z,101626.25
2023-02-11T21:32:09.280Z,101560.50
2023-02-11T21:35:12.098Z,101563.03
2023-02-11T21:38:15.565Z,101572.25
2023-02-11T21:41:19.927Z,101562.47
2023-02-11T21:44:22.527Z,101551.75
2023-02-11T21:47:25.224Z,101552.56
2023-02-11T21:50:27.951Z,101556.91
2023-02-11T21:53:30.716Z,101575.63
2023-02-11T21:56:35.118Z,101575.06
2023-02-11T21:59:37.635Z,101587.75
2023-02-11T22:02:40.436Z,101573.66
2023-02-11T22:05:43.210Z,101568.94
2023-02-11T22:08:45.724Z,101560.69
2023-02-11T22:11:49.339Z,101556.25
2023-02-11T22:14:51.895Z,101550.66
2023-02-11T22:17:54.307Z,101573.25
2023-02-11T22:21:17.581Z,101590.28
2023-02-11T22:24:20.138Z,101573.81
2023-02-11T22:27:23.086Z,101574.34
2023-02-11T22:30:25.728Z,101589.97
2023-02-11T22:33:28.876Z,101591.91
2023-02-11T22:36:37.986Z,101582.00
2023-02-11T22:39:42.070Z,101596.97
2023-02-11T22:42:44.802Z,101598.34
2023-02-11T22:45:47.447Z,101589.25
2023-02-11T22:48:50.540Z,101589.38
2023-02-11T22:51:53.705Z,101596.81
2023-02-11T22:54:56.326Z,101606.41
2023-02-11T22:57:58.858Z,101607.09
2023-02-11T23:01:01.789Z,101603.59
2023-02-11T23:04:06.416Z,101594.00
2023-02-11T23:07:08.834Z,101577.38
2023-02-11T23:10:11.465Z,101590.78
2023-02-11T23:13:13.916Z,101587.31
2023-02-11T23:16:21.151Z,101592.63
2023-02-11T23:19:26.539Z,101594.84
2023-02-11T23:22:29.032Z,101589.81
2023-02-11T23:25:32.701Z,101588.03
2023-02-11T23:28:36.292Z,101604.91
2023-02-11T23:31:40.886Z,101588.00
2023-02-11T23:34:43.436Z,101594.84
2023-02-11T23:37:45.896Z,101580.19
2023-02-11T23:40:48.383Z,101578.66
2023-02-11T23:43:52.924Z,101569.72
2023-02-11T23:46:55.380Z,101575.84
2023-02-11T23:49:59.616Z,101578.91
2023-02-11T23:53:02.212Z,101580.16
2023-02-11T23:56:14.974Z,101577.09
2023-02-11T23:59:17.823Z,101579.19
